< Typhoon 195804 1958 Season Typhoon 195806 >
Typhoon 195805 (RITA)
General InformationTrack Information on Google Maps || Disaster Info.ResourceGoogle EarthGE AnimationAtom FeedGeoJSON
Detalied Best Track (Time Zone = UTC)
Year Month Day Hour Lat. Long. Pressure (hPa) Wind (kt) Class Image Chart
1958 6 7 00 8.3 150.7 1008 0 2 -- Chart
1958 6 7 06 8.5 150.1 1005 0 2 -- Chart
1958 6 7 12 8.7 149.1 1005 0 2 -- Chart
1958 6 7 18 9.2 147.9 1005 0 2 -- Chart
1958 6 8 00 9.6 146.8 1005 0 2 -- Chart
1958 6 8 06 10.5 145.1 1005 0 2 -- Chart
1958 6 8 12 11.2 143.8 1000 0 9 -- Chart
1958 6 8 18 11.8 142.3 1000 0 9 -- Chart
1958 6 9 00 12.3 140.8 1000 0 9 -- Chart
1958 6 9 06 13.3 140.0 995 0 9 -- Chart
1958 6 9 12 14.0 139.4 995 0 9 -- Chart
1958 6 9 18 14.8 138.5 995 0 9 -- Chart
1958 6 10 00 15.3 137.6 995 0 9 -- Chart
1958 6 10 06 15.9 136.8 985 0 9 -- Chart
1958 6 10 12 16.4 136.1 985 0 9 -- Chart
1958 6 10 18 17.5 135.4 985 0 9 -- Chart
1958 6 11 00 18.4 134.3 990 0 9 -- Chart
1958 6 11 06 19.6 133.4 990 0 9 -- Chart
1958 6 11 12 20.6 133.3 990 0 9 -- Chart
1958 6 11 18 21.7 133.5 995 0 9 -- Chart
1958 6 12 00 23.4 134.8 995 0 9 -- Chart
1958 6 12 06 24.8 135.1 995 0 9 -- Chart
1958 6 12 12 25.3 136.8 995 0 9 -- Chart
1958 6 12 18 27.0 137.5 1000 0 9 -- Chart
1958 6 13 00 30.0 138.0 998 0 9 -- Chart
1958 6 13 06 31.5 139.3 1004 0 6 -- Chart
1958 6 13 12 32.2 140.2 1004 0 6 -- Chart
1958 6 13 18 33.0 141.4 1004 0 6 -- Chart
Japan Meteorological Agency Best Track Data | Correction Date : 1989-06-01
< Typhoon 195804 1958 Season Typhoon 195806 >

Help